Time;durP1;ratioP1;P1;durP2;ratioP2;P2;SDS_P1;SDS_P2;PMS_P1;PMS_P2;Temp;Humidity;BMP_temperature;BMP_pressure;BME280_temperature;BME280_humidity;BME280_pressure;Samples;Min_cycle;Max_cycle;Signal;HPM_P1;HPM_P2
2022/06/04 04:02:33;;;;;;;17.13;10.10;;;10.90;99.90;;;;;;6274068;22;20078;-78
2022/06/04 04:04:59;;;;;;;22.58;10.57;;;10.90;99.90;;;;;;6276796;22;20026;-80
2022/06/04 04:07:25;;;;;;;19.63;9.60;;;10.90;99.90;;;;;;6276770;22;20007;-78
2022/06/04 04:09:51;;;;;;;20.58;10.13;;;10.90;99.90;;;;;;6249649;22;20096;-80
2022/06/04 04:12:16;;;;;;;19.58;8.95;;;10.90;99.90;;;;;;6275779;22;20011;-77
2022/06/04 04:14:42;;;;;;;19.70;9.00;;;10.90;99.90;;;;;;6280358;22;20337;-81
2022/06/04 04:17:09;;;;;;;23.25;9.75;;;11.00;99.90;;;;;;6280581;22;20007;-78
2022/06/04 04:19:34;;;;;;;20.52;8.95;;;10.90;99.90;;;;;;6279654;22;20087;-78
2022/06/04 04:22:00;;;;;;;18.42;8.30;;;10.90;99.90;;;;;;6307850;22;20035;-80
2022/06/04 04:24:26;;;;;;;19.88;8.65;;;10.90;99.90;;;;;;6280216;22;20015;-77
2022/06/04 04:26:51;;;;;;;17.42;8.32;;;11.00;99.90;;;;;;6308320;22;20082;-77
2022/06/04 04:29:17;;;;;;;13.68;7.85;;;11.00;99.90;;;;;;6281957;22;20042;-76
2022/06/04 04:31:43;;;;;;;15.63;8.18;;;11.00;99.90;;;;;;6280617;22;20011;-77
2022/06/04 04:34:08;;;;;;;16.70;7.63;;;11.00;99.90;;;;;;6308343;22;20011;-79
2022/06/04 04:36:34;;;;;;;12.52;7.45;;;11.10;99.90;;;;;;6280450;22;20014;-77
2022/06/04 04:39:00;;;;;;;15.52;7.68;;;11.10;99.90;;;;;;6307651;22;20011;-80
2022/06/04 04:41:26;;;;;;;16.52;7.40;;;11.10;99.90;;;;;;6280271;22;20453;-78
2022/06/04 04:43:52;;;;;;;17.08;6.78;;;11.20;99.90;;;;;;6254167;22;20097;-77
2022/06/04 04:46:20;;;;;;;14.32;6.80;;;11.20;99.90;;;;;;6307530;22;20408;-77
2022/06/04 04:48:47;;;;;;;12.10;5.82;;;11.20;99.90;;;;;;6279957;22;20094;-79
2022/06/04 04:51:17;;;;;;;15.02;6.10;;;11.30;99.90;;;;;;6307580;22;20017;-77
2022/06/04 04:53:43;;;;;;;12.95;6.60;;;11.30;99.90;;;;;;6279902;22;20003;-78
2022/06/04 04:56:10;;;;;;;11.32;6.20;;;11.30;99.90;;;;;;6307205;22;20036;-79
2022/06/04 04:58:37;;;;;;;13.27;5.80;;;11.40;99.90;;;;;;6307682;22;20018;-81
2022/06/04 05:01:03;;;;;;;13.45;6.03;;;11.40;99.90;;;;;;6279635;22;20022;-81
2022/06/04 05:03:29;;;;;;;11.98;5.85;;;11.40;99.90;;;;;;6279995;22;20015;-76
2022/06/04 05:06:03;;;;;;;11.05;5.43;;;11.40;99.90;;;;;;6307481;22;20007;-77
2022/06/04 05:08:30;;;;;;;9.15;5.50;;;11.50;99.90;;;;;;6280478;22;20008;-78
2022/06/04 05:10:55;;;;;;;9.90;5.10;;;11.50;99.90;;;;;;6279815;22;20015;-79
2022/06/04 05:13:21;;;;;;;12.43;5.10;;;11.50;99.90;;;;;;6254969;22;20011;-78
2022/06/04 05:15:47;;;;;;;10.35;5.32;;;11.60;99.90;;;;;;6280140;22;20033;-79
2022/06/04 05:18:13;;;;;;;10.32;5.15;;;11.60;99.90;;;;;;6307336;22;20007;-78
2022/06/04 05:20:41;;;;;;;8.93;4.78;;;11.60;99.90;;;;;;6279930;22;20020;-81
2022/06/04 05:23:07;;;;;;;10.35;4.80;;;11.70;99.90;;;;;;6254399;22;20015;-79
2022/06/04 05:25:32;;;;;;;9.63;5.50;;;11.70;99.90;;;;;;6307704;22;20025;-77
2022/06/04 05:27:58;;;;;;;13.02;5.05;;;11.80;99.90;;;;;;6254379;22;20015;-77
2022/06/04 05:30:24;;;;;;;14.45;4.80;;;11.70;99.90;;;;;;6279850;22;20011;-81
2022/06/04 05:32:50;;;;;;;7.68;4.40;;;11.80;99.90;;;;;;6281734;22;20490;-79
2022/06/04 05:35:15;;;;;;;11.20;5.00;;;11.80;99.90;;;;;;6281683;22;20011;-81
2022/06/04 05:37:41;;;;;;;9.68;4.60;;;11.90;99.90;;;;;;6281781;22;20404;-78
2022/06/04 05:40:07;;;;;;;9.18;4.53;;;11.90;99.90;;;;;;6281802;22;20058;-79
2022/06/04 05:42:34;;;;;;;8.73;4.30;;;11.90;99.90;;;;;;6230803;22;20452;-81
2022/06/04 05:45:00;;;;;;;9.35;4.63;;;12.00;99.90;;;;;;6281688;22;20022;-80
2022/06/04 05:47:26;;;;;;;11.45;4.82;;;12.00;99.90;;;;;;6256213;22;20345;-80
2022/06/04 05:49:52;;;;;;;9.02;4.30;;;12.00;99.90;;;;;;6255999;22;20015;-80
2022/06/04 05:52:17;;;;;;;7.55;4.28;;;12.10;99.90;;;;;;6281746;22;20011;-79
2022/06/04 05:54:43;;;;;;;7.38;4.30;;;12.10;99.90;;;;;;6281667;22;20029;-76
2022/06/04 05:57:08;;;;;;;7.00;3.90;;;12.20;99.90;;;;;;6281649;22;20061;-77
2022/06/04 05:59:34;;;;;;;9.57;4.35;;;12.20;99.90;;;;;;6308842;22;20030;-78
2022/06/04 06:02:01;;;;;;;7.70;3.95;;;12.30;99.90;;;;;;6280240;22;20095;-79
2022/06/04 06:04:27;;;;;;;8.45;4.13;;;12.30;99.90;;;;;;6307826;22;20029;-79
2022/06/04 06:06:54;;;;;;;8.95;4.45;;;12.40;99.90;;;;;;6281446;22;20050;-82
2022/06/04 06:09:22;;;;;;;11.07;4.45;;;12.40;99.90;;;;;;6281461;22;20514;-79
2022/06/04 06:11:49;;;;;;;7.57;4.18;;;12.40;99.90;;;;;;6281223;22;20016;-80
2022/06/04 06:14:16;;;;;;;8.82;4.78;;;12.50;99.90;;;;;;6281489;22;20012;-78
2022/06/04 06:16:45;;;;;;;8.52;4.50;;;12.50;99.90;;;;;;6308963;22;20030;-78
2022/06/04 06:19:13;;;;;;;7.90;4.53;;;12.60;99.90;;;;;;6308743;22;20444;-76
2022/06/04 06:21:38;;;;;;;8.75;4.43;;;12.60;99.90;;;;;;6281086;22;20015;-75
2022/06/04 06:24:08;;;;;;;6.68;4.18;;;12.70;99.90;;;;;;6308581;22;20091;-81
2022/06/04 06:26:39;;;;;;;10.85;4.15;;;12.70;99.90;;;;;;6281156;22;20034;-79
2022/06/04 06:29:05;;;;;;;6.20;4.20;;;12.70;99.90;;;;;;6281771;22;20023;-79
2022/06/04 06:31:33;;;;;;;6.45;4.30;;;12.80;99.90;;;;;;6308694;22;20037;-81
2022/06/04 06:33:59;;;;;;;11.65;4.82;;;12.80;99.90;;;;;;6281006;22;20011;-79
2022/06/04 06:36:25;;;;;;;7.95;4.47;;;12.90;99.90;;;;;;6308965;22;20031;-79
2022/06/04 06:38:51;;;;;;;10.95;4.88;;;12.90;99.90;;;;;;6282049;22;20329;-80
2022/06/04 06:41:20;;;;;;;8.32;4.95;;;13.00;99.90;;;;;;6280980;22;20011;-77
2022/06/04 06:43:49;;;;;;;6.32;4.32;;;13.00;99.90;;;;;;6255578;22;20072;-77
2022/06/04 06:46:35;;;;;;;8.15;4.45;;;13.10;99.90;;;;;;6280891;22;20118;-79
2022/06/04 06:49:02;;;;;;;7.75;4.15;;;13.10;99.90;;;;;;6281983;22;20015;-80
2022/06/04 06:51:33;;;;;;;9.57;4.38;;;13.20;99.90;;;;;;6306411;22;20015;-79
2022/06/04 06:53:58;;;;;;;9.77;4.80;;;13.30;99.90;;;;;;6307264;22;20517;-79
2022/06/04 06:56:31;;;;;;;8.43;4.57;;;13.30;99.90;;;;;;6308179;22;20043;-80
2022/06/04 06:58:59;;;;;;;8.52;4.22;;;13.40;99.90;;;;;;6281034;22;20004;-78
2022/06/04 07:01:26;;;;;;;7.88;4.55;;;13.50;99.90;;;;;;6307359;22;20011;-79
2022/06/04 07:03:52;;;;;;;9.85;4.65;;;13.60;99.90;;;;;;6308193;22;20011;-78
2022/06/04 07:06:37;;;;;;;10.93;4.53;;;13.70;99.90;;;;;;6307876;22;20057;-79
2022/06/04 07:09:11;;;;;;;11.93;5.00;;;13.70;99.90;;;;;;6279014;22;20023;-76
2022/06/04 07:11:36;;;;;;;10.57;4.95;;;13.80;99.90;;;;;;6307449;22;20022;-77
2022/06/04 07:14:02;;;;;;;7.88;4.25;;;13.80;99.90;;;;;;6280313;22;20437;-80
2022/06/04 07:16:28;;;;;;;9.05;4.70;;;13.80;99.90;;;;;;6253886;22;20429;-77
2022/06/04 07:18:53;;;;;;;7.97;4.18;;;13.80;99.90;;;;;;6261563;22;20012;-79
2022/06/04 07:21:19;;;;;;;8.40;4.20;;;13.80;99.90;;;;;;6274167;22;20062;-80
2022/06/04 07:23:45;;;;;;;7.80;4.43;;;13.80;99.90;;;;;;6306173;22;20007;-81
2022/06/04 07:26:12;;;;;;;7.63;4.22;;;13.90;99.90;;;;;;6281097;22;20437;-78
2022/06/04 07:28:39;;;;;;;7.57;4.38;;;14.00;99.90;;;;;;6281079;22;20087;-78
2022/06/04 07:31:07;;;;;;;7.28;4.30;;;14.10;99.90;;;;;;6308725;22;20038;-82
2022/06/04 07:33:33;;;;;;;9.45;5.10;;;14.30;99.90;;;;;;6308392;22;20012;-78
2022/06/04 07:35:59;;;;;;;8.18;4.25;;;14.40;99.90;;;;;;6280876;22;20341;-79
2022/06/04 07:38:25;;;;;;;10.73;4.90;;;14.50;99.90;;;;;;6281666;22;20011;-80
2022/06/04 07:40:50;;;;;;;8.45;4.40;;;14.60;99.90;;;;;;6280671;22;20011;-77
2022/06/04 07:43:16;;;;;;;8.05;4.40;;;14.70;99.90;;;;;;6308431;22;20011;-79
2022/06/04 07:45:42;;;;;;;7.80;4.15;;;14.90;99.90;;;;;;6308006;22;20029;-80
2022/06/04 07:48:09;;;;;;;8.73;4.63;;;15.00;99.90;;;;;;6310138;22;20007;-86
2022/06/04 07:50:37;;;;;;;7.57;4.28;;;15.00;99.90;;;;;;6308788;22;20075;-83
2022/06/04 07:53:02;;;;;;;8.45;4.45;;;15.10;99.90;;;;;;6308516;22;20007;-78
2022/06/04 07:55:28;;;;;;;8.80;4.25;;;15.20;99.90;;;;;;6307596;22;20039;-79
2022/06/04 07:57:54;;;;;;;6.63;4.50;;;15.20;99.90;;;;;;6255517;22;20013;-81
2022/06/04 08:00:22;;;;;;;10.93;4.88;;;15.30;99.90;;;;;;6280691;22;20037;-80
2022/06/04 08:02:48;;;;;;;5.40;3.92;;;15.40;99.90;;;;;;6307883;22;20056;-82
2022/06/04 08:05:14;;;;;;;9.35;3.92;;;15.50;99.90;;;;;;6307870;22;20075;-80
2022/06/04 08:07:41;;;;;;;5.75;3.88;;;15.50;99.90;;;;;;6280737;22;20287;-79
2022/06/04 08:10:09;;;;;;;9.55;4.10;;;15.60;99.90;;;;;;6280639;22;20463;-78
2022/06/04 08:12:40;;;;;;;7.13;3.97;;;15.60;99.90;;;;;;6280557;22;20087;-82
2022/06/04 08:15:07;;;;;;;5.68;3.85;;;15.60;99.90;;;;;;6280969;22;20007;-80
2022/06/04 08:17:32;;;;;;;5.45;3.65;;;15.60;99.90;;;;;;6307963;22;20018;-78
2022/06/04 08:19:58;;;;;;;5.97;3.78;;;15.60;99.90;;;;;;6280613;22;20007;-79
2022/06/04 08:22:24;;;;;;;6.65;3.33;;;15.60;99.90;;;;;;6308099;22;20018;-80
2022/06/04 08:24:49;;;;;;;5.57;3.60;;;15.70;99.90;;;;;;6280538;22;20463;-81
2022/06/04 08:27:16;;;;;;;6.25;3.97;;;15.70;99.90;;;;;;6280504;22;20007;-81
2022/06/04 08:29:42;;;;;;;6.85;3.60;;;15.80;99.90;;;;;;6307757;22;20007;-80
2022/06/04 08:32:08;;;;;;;6.25;3.88;;;15.80;99.90;;;;;;6308326;22;20007;-79
2022/06/04 08:34:34;;;;;;;6.82;3.60;;;15.80;99.90;;;;;;6280522;22;20014;-80
2022/06/04 08:37:00;;;;;;;6.72;3.60;;;15.90;99.90;;;;;;6308333;22;20011;-79
2022/06/04 08:39:27;;;;;;;9.63;3.67;;;15.90;99.90;;;;;;6307752;22;20008;-82
2022/06/04 08:42:09;;;;;;;7.70;3.63;;;16.00;99.90;;;;;;6308006;22;20108;-82
2022/06/04 08:44:51;;;;;;;6.70;3.85;;;16.10;99.90;;;;;;6280512;22;20022;-77
2022/06/04 08:47:28;;;;;;;8.15;3.50;;;16.30;99.90;;;;;;6254939;22;20015;-81
2022/06/04 08:50:09;;;;;;;6.53;3.55;;;16.50;99.90;;;;;;6307790;22;20019;-80
2022/06/04 08:52:47;;;;;;;6.95;3.50;;;16.60;99.90;;;;;;6307633;22;20014;-79
2022/06/04 08:58:00;;;;;;;6.10;3.80;;;16.90;99.90;;;;;;6280465;22;20015;-78
2022/06/04 09:00:46;;;;;;;6.70;3.72;;;17.10;99.90;;;;;;6307712;22;20019;-78
2022/06/04 09:03:56;;;;;;;6.13;3.33;;;17.30;99.90;;;;;;6280744;22;20099;-79
2022/06/04 09:06:44;;;;;;;6.57;3.67;;;17.40;99.90;;;;;;6129569;23;20014;-80
2022/06/04 09:09:17;;;;;;;6.22;3.50;;;17.40;99.90;;;;;;6293197;22;20015;-81
2022/06/04 09:11:46;;;;;;;6.07;3.67;;;17.50;99.90;;;;;;6282617;22;20465;-80
2022/06/04 09:14:14;;;;;;;6.63;3.70;;;17.50;99.90;;;;;;6309488;22;20045;-81
2022/06/04 09:16:49;;;;;;;7.20;3.83;;;17.50;99.90;;;;;;6282296;22;20012;-80
2022/06/04 09:19:20;;;;;;;7.35;3.83;;;17.40;99.90;;;;;;6309995;22;20078;-80
2022/06/04 09:21:48;;;;;;;7.78;3.72;;;17.40;99.90;;;;;;6282122;22;20019;-82
2022/06/04 09:24:13;;;;;;;7.50;3.70;;;17.40;99.90;;;;;;6282274;22;20015;-81
2022/06/04 09:26:51;;;;;;;6.38;3.28;;;17.40;99.90;;;;;;6282144;22;20133;-81
2022/06/04 09:29:44;;;;;;;6.70;3.65;;;17.40;99.90;;;;;;6282316;22;20311;-80
2022/06/04 09:32:44;;;;;;;5.57;3.58;;;17.40;99.90;;;;;;6309705;22;20015;-80
2022/06/04 09:35:17;;;;;;;6.35;3.80;;;17.50;99.90;;;;;;6287437;22;20087;-81
2022/06/04 09:37:46;;;;;;;5.93;3.47;;;17.50;99.90;;;;;;6309996;22;20007;-78
2022/06/04 09:40:25;;;;;;;4.97;3.30;;;17.50;99.90;;;;;;6309858;22;20011;-80
2022/06/04 09:43:02;;;;;;;7.10;3.45;;;17.60;99.90;;;;;;6309709;22;20007;-80
2022/06/04 09:45:28;;;;;;;4.35;3.17;;;17.60;99.90;;;;;;6281892;22;20385;-79
2022/06/04 09:47:56;;;;;;;6.18;3.20;;;17.70;99.90;;;;;;6282026;22;20011;-79
2022/06/04 09:50:34;;;;;;;5.63;3.50;;;17.80;99.90;;;;;;6284256;22;20022;-75
2022/06/04 09:53:02;;;;;;;5.20;3.35;;;17.90;99.90;;;;;;6287652;22;20015;-76
2022/06/04 09:55:30;;;;;;;5.43;3.80;;;18.10;99.90;;;;;;6312381;22;20045;-82
2022/06/04 09:58:04;;;;;;;6.88;3.13;;;18.40;99.90;;;;;;6244683;22;20026;-77
2022/06/04 10:00:38;;;;;;;4.03;2.83;;;18.70;99.90;;;;;;6281832;22;20388;-80
2022/06/04 10:03:15;;;;;;;4.53;2.83;;;19.00;99.90;;;;;;6281929;22;20015;-78
2022/06/04 10:05:51;;;;;;;6.18;3.38;;;19.30;99.90;;;;;;6281856;22;20015;-79
2022/06/04 10:08:22;;;;;;;5.22;3.08;;;19.50;99.90;;;;;;6309449;22;20015;-79
2022/06/04 10:10:49;;;;;;;5.20;2.70;;;19.50;99.90;;;;;;6281478;22;20043;-79
2022/06/04 10:13:43;;;;;;;6.18;3.40;;;19.60;99.90;;;;;;6281716;22;20014;-81
2022/06/04 10:16:29;;;;;;;7.28;3.30;;;19.60;99.90;;;;;;6281572;22;20452;-82
2022/06/04 10:18:55;;;;;;;;;;;19.50;99.90;;;;;;6282048;22;20047;-82
2022/06/04 10:21:24;;;;;;;6.30;3.75;;;19.50;99.90;;;;;;6281573;22;20236;-82
2022/06/04 10:23:54;;;;;;;6.18;3.50;;;19.50;99.90;;;;;;6309294;22;20011;-79
2022/06/04 10:26:42;;;;;;;5.28;3.53;;;19.60;99.90;;;;;;6281575;22;20011;-81
2022/06/04 10:29:27;;;;;;;8.32;3.25;;;19.60;99.90;;;;;;6309065;22;20011;-80
2022/06/04 10:32:06;;;;;;;5.38;3.28;;;19.50;99.90;;;;;;6281265;22;20026;-82
2022/06/04 10:34:58;;;;;;;8.18;3.00;;;19.70;99.90;;;;;;6256442;22;20015;-81
2022/06/04 10:37:43;;;;;;;4.97;3.08;;;19.70;99.90;;;;;;6203710;22;20015;-77
2022/06/04 10:40:34;;;;;;;4.90;2.65;;;19.70;99.90;;;;;;6276498;22;20062;-78
2022/06/04 10:43:17;;;;;;;8.02;3.13;;;19.70;99.90;;;;;;6297272;22;20011;-81
2022/06/04 10:46:14;;;;;;;6.03;2.90;;;19.70;99.90;;;;;;6281284;22;20457;-80
2022/06/04 10:48:58;;;;;;;6.28;3.05;;;19.80;99.90;;;;;;6308929;22;20015;-81
2022/06/04 10:51:26;;;;;;;4.55;2.53;;;20.00;99.90;;;;;;6255301;22;20027;-84
2022/06/04 10:54:10;;;;;;;6.72;2.97;;;20.20;99.90;;;;;;6308430;22;20468;-81
2022/06/04 10:56:42;;;;;;;6.88;2.60;;;20.40;99.90;;;;;;6255533;22;20024;-82
2022/06/04 10:59:42;;;;;;;5.43;2.72;;;20.60;99.90;;;;;;6308337;22;20077;-78
2022/06/04 11:02:31;;;;;;;4.53;2.67;;;20.60;99.90;;;;;;6280741;22;20090;-83
2022/06/04 11:05:02;;;;;;;6.15;2.78;;;20.60;99.90;;;;;;6284196;22;20023;-79
2022/06/04 11:07:37;;;;;;;6.32;3.10;;;20.70;99.90;;;;;;6280992;22;20011;-80
2022/06/04 11:10:11;;;;;;;5.25;2.55;;;20.70;99.90;;;;;;6308540;22;20332;-79
2022/06/04 11:13:02;;;;;;;4.30;2.50;;;20.70;99.90;;;;;;6280619;22;20091;-78
2022/06/04 11:15:44;;;;;;;3.55;2.47;;;20.80;99.90;;;;;;6280778;22;20015;-82
2022/06/04 11:18:17;;;;;;;5.38;2.63;;;20.90;99.90;;;;;;6280938;22;20061;-80
2022/06/04 11:20:56;;;;;;;4.95;2.65;;;21.10;99.90;;;;;;6281001;22;20075;-79
2022/06/04 11:24:00;;;;;;;3.97;2.50;;;21.10;99.90;;;;;;6309066;22;20011;-79
2022/06/04 11:26:47;;;;;;;6.78;2.90;;;21.20;99.90;;;;;;6129768;23;20022;-79
2022/06/04 11:29:14;;;;;;;7.00;2.55;;;21.20;99.90;;;;;;6293035;22;20007;-81
2022/06/04 11:31:54;;;;;;;3.92;2.25;;;21.30;99.90;;;;;;6254964;22;20015;-79
2022/06/04 11:34:38;;;;;;;5.78;2.50;;;21.30;99.90;;;;;;6280609;22;20018;-82
2022/06/04 11:37:10;;;;;;;3.95;2.50;;;21.40;99.90;;;;;;6281674;22;20015;-83
2022/06/04 11:39:43;;;;;;;5.45;3.13;;;21.40;99.90;;;;;;6308449;22;20011;-80
2022/06/04 11:42:36;;;;;;;7.38;3.05;;;21.40;99.90;;;;;;6280748;22;20015;-82
2022/06/04 11:45:19;;;;;;;6.70;2.47;;;21.40;99.90;;;;;;6308633;22;20057;-78
2022/06/04 11:48:18;;;;;;;6.53;2.65;;;21.40;99.90;;;;;;6280730;22;20011;-79
2022/06/04 11:51:07;;;;;;;5.45;2.15;;;21.30;99.90;;;;;;6280870;22;20383;-80
2022/06/04 11:53:56;;;;;;;5.40;2.47;;;21.30;99.90;;;;;;6281191;22;20014;-79
2022/06/04 11:56:48;;;;;;;6.22;2.40;;;21.40;99.90;;;;;;6308522;22;20018;-80
2022/06/04 11:59:17;;;;;;;4.63;2.60;;;21.40;99.90;;;;;;6254906;22;20019;-80
2022/06/04 12:01:58;;;;;;;5.88;2.45;;;21.40;99.90;;;;;;6307054;22;20011;-81
2022/06/04 12:05:00;;;;;;;3.90;2.50;;;21.40;99.90;;;;;;6279323;22;20015;-80
2022/06/04 12:07:48;;;;;;;4.35;2.75;;;21.40;99.90;;;;;;6274414;22;20082;-80
2022/06/04 12:10:14;;;;;;;4.07;2.22;;;21.40;99.90;;;;;;6279363;22;20376;-81
2022/06/04 12:12:48;;;;;;;5.45;2.50;;;21.40;99.90;;;;;;6253849;22;20011;-79
2022/06/04 12:15:33;;;;;;;3.13;2.03;;;21.40;99.90;;;;;;6279403;22;20011;-81
2022/06/04 12:18:04;;;;;;;4.45;2.50;;;21.50;99.90;;;;;;6307009;22;20079;-78
2022/06/04 12:26:26;;;;;;;7.18;2.35;;;21.60;99.90;;;;;;6279000;22;20093;-80
2022/06/04 12:28:53;;;;;;;3.75;2.40;;;21.70;99.90;;;;;;6279119;22;20090;-80
2022/06/04 12:31:37;;;;;;;4.28;2.35;;;22.00;99.90;;;;;;6306847;22;20046;-79
2022/06/04 12:34:23;;;;;;;6.32;2.72;;;22.10;99.90;;;;;;6279143;22;20015;-78
2022/06/04 12:36:52;;;;;;;6.13;2.65;;;22.30;99.90;;;;;;6278154;22;20090;-82
2022/06/04 12:39:27;;;;;;;4.93;2.75;;;22.40;99.90;;;;;;6279066;22;20058;-83
2022/06/04 12:41:54;;;;;;;;;;;22.40;99.90;;;;;;6308211;22;20082;-81
2022/06/04 12:44:29;;;;;;;9.50;3.10;;;22.40;99.90;;;;;;6280110;22;19918;-80
2022/06/04 12:47:08;;;;;;;4.47;2.30;;;22.40;99.90;;;;;;6308249;22;20061;-79
2022/06/04 12:49:47;;;;;;;5.97;2.83;;;22.40;99.90;;;;;;6280585;22;20022;-82
2022/06/04 12:52:32;;;;;;;5.32;2.63;;;22.40;99.90;;;;;;6280350;22;20018;-78
2022/06/04 12:55:15;;;;;;;6.87;2.93;;;22.20;99.90;;;;;;6280694;22;20061;-81
2022/06/04 12:58:01;;;;;;;2.85;1.92;;;22.10;99.90;;;;;;6308264;22;20328;-80
2022/06/04 13:00:42;;;;;;;5.00;2.90;;;21.90;99.90;;;;;;6233952;22;1700035;-79
2022/06/04 13:03:07;;;;;;;3.85;2.70;;;21.70;99.90;;;;;;6282515;22;20019;-80
2022/06/04 13:06:01;;;;;;;5.40;2.50;;;21.60;99.90;;;;;;6310195;22;20013;-81
2022/06/04 13:08:42;;;;;;;5.72;2.28;;;21.60;99.90;;;;;;6310321;22;20041;-79
2022/06/04 13:11:26;;;;;;;4.05;2.50;;;21.70;99.90;;;;;;6282348;22;20108;-80
2022/06/04 13:14:16;;;;;;;5.03;2.40;;;21.90;99.90;;;;;;6282138;22;20011;-80
2022/06/04 13:16:58;;;;;;;5.50;2.90;;;22.00;99.90;;;;;;6309823;22;20012;-79
2022/06/04 13:19:38;;;;;;;4.07;2.78;;;22.10;99.90;;;;;;6281996;22;20012;-79
2022/06/04 13:22:13;;;;;;;8.40;3.13;;;22.20;99.90;;;;;;6281796;22;20015;-80
2022/06/04 13:24:39;;;;;;;5.43;2.97;;;22.10;99.90;;;;;;6257017;22;20034;-81
2022/06/04 13:27:11;;;;;;;6.43;3.35;;;22.00;99.90;;;;;;6256826;22;20318;-81
2022/06/04 13:29:39;;;;;;;5.72;3.38;;;22.10;99.90;;;;;;6281913;22;20429;-80
2022/06/04 13:32:17;;;;;;;4.32;2.95;;;22.00;99.90;;;;;;6282079;22;20452;-82
2022/06/04 13:34:44;;;;;;;4.90;2.92;;;22.00;99.90;;;;;;6310024;22;20011;-80
2022/06/04 13:37:23;;;;;;;6.90;3.33;;;22.20;99.90;;;;;;6281932;22;20060;-79
2022/06/04 13:39:51;;;;;;;6.72;3.33;;;22.20;99.90;;;;;;6283055;22;20074;-82
2022/06/04 13:42:30;;;;;;;7.38;3.70;;;22.20;99.90;;;;;;6309076;22;20015;-78
2022/06/04 13:45:04;;;;;;;6.03;3.10;;;22.30;99.90;;;;;;6256508;22;20026;-78
2022/06/04 13:47:36;;;;;;;6.20;3.13;;;22.30;99.90;;;;;;6309746;22;20011;-81
2022/06/04 13:50:08;;;;;;;5.95;3.35;;;22.30;99.90;;;;;;6282038;22;20015;-81
2022/06/04 13:52:45;;;;;;;5.22;2.60;;;22.20;99.90;;;;;;6281438;22;20015;-79
2022/06/04 13:55:21;;;;;;;7.88;3.30;;;22.30;99.90;;;;;;6309467;22;20090;-80
2022/06/04 13:57:49;;;;;;;7.07;2.95;;;22.30;99.90;;;;;;6309605;22;20007;-80
2022/06/04 14:00:19;;;;;;;8.75;3.42;;;22.30;99.90;;;;;;6309525;22;20012;-81
2022/06/04 14:02:48;;;;;;;5.38;2.90;;;22.60;99.90;;;;;;6281905;22;20015;-79
2022/06/04 14:08:06;;;;;;;6.25;3.13;;;23.00;99.90;;;;;;6281750;22;20047;-81
2022/06/04 14:10:32;;;;;;;5.05;2.78;;;22.90;99.90;;;;;;6281600;22;20084;-81
2022/06/04 14:13:19;;;;;;;5.25;2.95;;;22.90;99.90;;;;;;6281758;22;20007;-83
2022/06/04 14:16:03;;;;;;;5.65;2.85;;;22.90;99.90;;;;;;6309151;22;20011;-80
2022/06/04 14:18:56;;;;;;;4.55;2.88;;;23.00;99.90;;;;;;6309344;22;20011;-82
2022/06/04 14:21:52;;;;;;;10.15;3.35;;;23.20;99.90;;;;;;6307800;22;20437;-82
2022/06/04 14:24:59;;;;;;;4.78;2.75;;;23.30;99.90;;;;;;6255926;22;20023;-79
2022/06/04 14:27:25;;;;;;;5.82;2.70;;;23.30;99.90;;;;;;6309402;22;20307;-81
2022/06/04 14:30:13;;;;;;;4.82;3.08;;;23.30;99.90;;;;;;6309283;22;20082;-80
2022/06/04 14:32:55;;;;;;;6.65;2.85;;;23.50;99.90;;;;;;6281234;22;20050;-80
2022/06/04 14:35:21;;;;;;;7.07;2.75;;;23.70;99.90;;;;;;6255953;22;20444;-82
2022/06/04 14:37:49;;;;;;;8.23;3.05;;;23.80;99.90;;;;;;6282502;22;20095;-78
2022/06/04 14:40:19;;;;;;;7.40;3.47;;;23.90;99.90;;;;;;6308656;22;20008;-80
2022/06/04 14:43:06;;;;;;;6.63;3.10;;;23.70;99.90;;;;;;6230450;22;20342;-80
2022/06/04 14:45:43;;;;;;;7.07;3.28;;;23.60;99.90;;;;;;6308606;22;20088;-79
2022/06/04 14:48:14;;;;;;;7.15;3.38;;;23.50;99.90;;;;;;6309023;22;20008;-79
2022/06/04 14:51:05;;;;;;;7.22;3.28;;;23.50;99.90;;;;;;6281099;22;20337;-78
2022/06/04 14:53:31;;;;;;;5.85;3.00;;;23.70;99.90;;;;;;6281253;22;20434;-82
2022/06/04 14:56:22;;;;;;;5.60;2.72;;;23.80;99.90;;;;;;6308550;22;20428;-79
2022/06/04 14:59:12;;;;;;;8.77;3.28;;;23.70;99.90;;;;;;6281170;22;20014;-78
2022/06/04 15:02:00;;;;;;;5.90;3.10;;;23.70;99.90;;;;;;6308456;22;20043;-82
2022/06/04 15:05:02;;;;;;;7.70;3.70;;;23.60;99.90;;;;;;6308254;22;20065;-80
2022/06/04 15:08:05;;;;;;;5.90;3.70;;;23.50;99.90;;;;;;6281653;22;20007;-79
2022/06/04 15:10:34;;;;;;;6.57;3.30;;;23.40;99.90;;;;;;6313162;22;20367;-77
2022/06/04 15:13:33;;;;;;;8.40;3.00;;;23.40;99.90;;;;;;6314943;22;20018;-78
2022/06/04 15:16:23;;;;;;;6.72;3.15;;;23.40;99.90;;;;;;6288927;22;20129;-80
2022/06/04 15:19:02;;;;;;;6.47;3.60;;;23.40;99.90;;;;;;6289954;22;20007;-75
2022/06/04 15:21:41;;;;;;;7.18;3.60;;;23.40;99.90;;;;;;6292328;22;20016;-77
2022/06/04 15:24:33;;;;;;;8.75;3.50;;;23.50;99.90;;;;;;6320599;22;20011;-76
2022/06/04 15:27:29;;;;;;;6.78;3.50;;;23.50;99.90;;;;;;6273664;22;20011;-77
2022/06/04 15:35:49;;;;;;;8.60;3.15;;;23.60;99.90;;;;;;6315848;22;20018;-78
2022/06/04 15:38:35;;;;;;;6.85;3.30;;;23.60;99.90;;;;;;6282153;22;20003;-79
2022/06/04 15:41:28;;;;;;;5.45;3.08;;;23.60;99.90;;;;;;6255878;22;20012;-81
2022/06/04 15:44:07;;;;;;;6.65;3.30;;;23.60;99.90;;;;;;6309020;22;20022;-79
2022/06/04 15:46:42;;;;;;;8.40;3.78;;;23.30;99.90;;;;;;6280995;22;20015;-79
2022/06/04 15:55:54;;;;;;;8.82;3.40;;;22.80;99.90;;;;;;6261849;22;20015;-82
2022/06/04 15:58:42;;;;;;;6.38;3.42;;;22.90;99.90;;;;;;6280904;22;20015;-82
2022/06/04 16:01:30;;;;;;;7.53;2.88;;;23.00;99.90;;;;;;6308188;22;20007;-81
2022/06/04 16:04:08;;;;;;;7.35;3.35;;;23.10;99.90;;;;;;6254768;22;20383;-80
2022/06/04 16:06:46;;;;;;;6.18;2.88;;;23.20;99.90;;;;;;6280853;22;20011;-79
2022/06/04 16:09:26;;;;;;;7.72;3.72;;;23.20;99.90;;;;;;6280760;22;20011;-78
2022/06/04 16:12:12;;;;;;;6.57;4.32;;;23.20;99.90;;;;;;6280556;22;20015;-80
2022/06/04 16:15:08;;;;;;;7.22;3.22;;;23.30;99.90;;;;;;6308180;22;20329;-82
2022/06/04 16:17:56;;;;;;;10.02;4.65;;;23.30;99.90;;;;;;6281918;22;20094;-82
2022/06/04 16:20:39;;;;;;;7.00;3.40;;;23.20;99.90;;;;;;6255028;22;20011;-80
2022/06/04 16:23:23;;;;;;;6.10;3.58;;;23.20;99.90;;;;;;6308351;22;20011;-83
2022/06/04 16:25:57;;;;;;;8.27;4.40;;;23.20;99.90;;;;;;6308037;22;20540;-82
2022/06/04 16:28:56;;;;;;;8.50;3.38;;;23.10;99.90;;;;;;6280887;22;20007;-80
2022/06/04 16:31:25;;;;;;;7.47;3.50;;;23.20;99.90;;;;;;6279367;22;20065;-81
2022/06/04 16:34:01;;;;;;;4.78;3.03;;;23.20;99.90;;;;;;6280493;22;20014;-81
2022/06/04 16:36:46;;;;;;;6.15;3.05;;;23.20;99.90;;;;;;6281374;22;20433;-80
2022/06/04 16:39:15;;;;;;;7.95;3.60;;;23.00;99.90;;;;;;6280636;22;20086;-82
2022/06/04 16:42:07;;;;;;;8.60;3.28;;;22.90;99.90;;;;;;6280391;22;20060;-83
2022/06/04 16:44:39;;;;;;;10.30;3.20;;;22.90;99.90;;;;;;6307924;22;20368;-80
2022/06/04 16:47:10;;;;;;;7.65;3.83;;;22.90;99.90;;;;;;6307577;22;20438;-81
2022/06/04 16:49:49;;;;;;;8.15;2.95;;;22.80;99.90;;;;;;6256806;22;20019;-79
2022/06/04 16:52:21;;;;;;;10.18;3.58;;;22.80;99.90;;;;;;6312830;22;20035;-79
2022/06/04 16:54:51;;;;;;;6.50;3.28;;;22.70;99.90;;;;;;6284479;22;20425;-80
2022/06/04 16:57:17;;;;;;;5.03;3.20;;;22.70;99.90;;;;;;6283446;22;20310;-79
2022/06/04 16:59:44;;;;;;;7.43;3.20;;;22.60;99.90;;;;;;6256273;22;20007;-82
2022/06/04 17:02:13;;;;;;;7.60;3.42;;;22.60;99.90;;;;;;6308959;22;20015;-83
2022/06/04 17:04:55;;;;;;;8.50;3.50;;;22.60;99.90;;;;;;6280214;22;20012;-78
2022/06/04 17:07:47;;;;;;;5.95;3.22;;;22.40;99.90;;;;;;6279951;22;20015;-78
2022/06/04 17:10:33;;;;;;;10.25;4.03;;;22.30;99.90;;;;;;6279717;22;20026;-83
2022/06/04 17:13:17;;;;;;;7.93;3.08;;;22.20;99.90;;;;;;6280043;22;20011;-81
2022/06/04 17:16:04;;;;;;;6.82;3.40;;;22.20;99.90;;;;;;6307850;22;20008;-80
2022/06/04 17:18:53;;;;;;;8.15;3.30;;;22.20;99.90;;;;;;6280185;22;20038;-79
2022/06/04 17:21:31;;;;;;;8.48;3.70;;;22.00;99.90;;;;;;6279574;22;20015;-81
2022/06/04 17:24:06;;;;;;;8.82;3.83;;;21.90;99.90;;;;;;6280192;22;20310;-79
2022/06/04 17:26:49;;;;;;;8.70;4.05;;;21.70;99.90;;;;;;6307847;22;20042;-81
2022/06/04 17:29:39;;;;;;;9.98;3.63;;;21.60;99.90;;;;;;6308973;22;20422;-78
2022/06/04 17:32:05;;;;;;;8.43;3.53;;;21.40;99.90;;;;;;6309034;22;20050;-82
2022/06/04 17:34:35;;;;;;;7.70;3.30;;;21.30;99.90;;;;;;6256006;22;20007;-81
2022/06/04 17:37:36;;;;;;;9.55;4.13;;;21.30;99.90;;;;;;6256456;22;20007;-81
2022/06/04 17:40:28;;;;;;;10.93;4.20;;;21.20;99.90;;;;;;6309290;22;20007;-79
2022/06/04 17:42:55;;;;;;;9.45;3.80;;;21.10;99.90;;;;;;6264130;22;20011;-81
2022/06/04 17:45:22;;;;;;;11.07;4.28;;;21.00;99.90;;;;;;6281358;22;20425;-80
2022/06/04 17:47:47;;;;;;;7.25;3.85;;;20.90;99.90;;;;;;6309218;22;20007;-82
2022/06/04 17:50:15;;;;;;;8.82;4.10;;;20.80;99.90;;;;;;6281173;22;20076;-81